Dongsha Dao, China
Current Conditions -  °F | °C
As of 12:00 PM on Saturday 01 Nov 2014 (Local Time) from ZGOW Reporting Station
Few Clouds Few Clouds  
Wind Chill: 84°   Ceiling: Unl
Heat Index: 88°   Visibility: 4mi
Dew Point: 70°   Wind: 4mph
Humidity: 62%   Direction: 120°ESE
Pressure: 29.91"   Gusts: NA
Location:  20.67°N, 116.72°E
Report Text: ZGOW 010400Z 12002MPS 070V190 6000 FEW030 29/21 Q1013 NOSIG
Loading
Personal Weather Stations






























Interactive Weather Map
Tropical Storm Tracking
New forecast layout! Learn more

10-Day Weather Forecast

Advertisements
Track Severe Weather on mobile